Time;durP1;ratioP1;P1;durP2;ratioP2;P2;SDS_P1;SDS_P2;PMS_P1;PMS_P2;Temp;Humidity;BMP_temperature;BMP_pressure;BME280_temperature;BME280_humidity;BME280_pressure;Samples;Min_cycle;Max_cycle;Signal;HPM_P1;HPM_P2
2023/03/25 00:01:31;;;;;;;9.23;5.68;;;;;;;;;;10361405;28;20190;-50
2023/03/25 00:06:35;;;;;;;14.30;5.78;;;;;;;;;;10363892;28;20068;-51
2023/03/25 00:11:36;;;;;;;9.80;5.50;;;;;;;;;;10371313;28;20568;-52
2023/03/25 00:16:36;;;;;;;7.25;5.45;;;;;;;;;;10375655;28;20421;-48
2023/03/25 00:21:38;;;;;;;6.63;5.25;;;;;;;;;;10361744;28;20080;-50
2023/03/25 00:26:41;;;;;;;8.43;5.38;;;;;;;;;;10373661;28;20032;-51
2023/03/25 00:31:42;;;;;;;10.80;5.15;;;;;;;;;;10374692;28;20026;-49
2023/03/25 00:36:44;;;;;;;10.40;5.40;;;;;;;;;;10362110;28;20477;-48
2023/03/25 00:41:45;;;;;;;7.43;5.00;;;;;;;;;;10361109;28;20534;-54
2023/03/25 00:46:45;;;;;;;12.02;5.63;;;;;;;;;;10364157;28;20030;-48
2023/03/25 00:51:46;;;;;;;5.20;4.70;;;;;;;;;;10355173;28;20041;-48
2023/03/25 00:56:49;;;;;;;9.48;5.32;;;;;;;;;;10363850;28;20421;-48
2023/03/25 01:01:52;;;;;;;11.07;5.82;;;;;;;;;;10373602;28;20038;-50
2023/03/25 01:06:53;;;;;;;10.05;5.20;;;;;;;;;;10359497;28;20037;-51
2023/03/25 01:11:54;;;;;;;6.22;4.80;;;;;;;;;;10373707;28;20029;-51
2023/03/25 01:16:57;;;;;;;5.97;4.65;;;;;;;;;;10373061;28;20038;-52
2023/03/25 01:21:57;;;;;;;11.95;5.00;;;;;;;;;;10372363;28;20030;-52
2023/03/25 01:26:58;;;;;;;8.10;5.35;;;;;;;;;;10371300;28;20056;-52
2023/03/25 01:31:59;;;;;;;8.45;4.53;;;;;;;;;;10370259;28;20026;-53
2023/03/25 01:36:59;;;;;;;8.30;5.05;;;;;;;;;;10371913;28;20030;-51
2023/03/25 01:42:00;;;;;;;7.47;4.70;;;;;;;;;;10337749;28;20482;-51
2023/03/25 01:47:03;;;;;;;8.85;4.75;;;;;;;;;;10354316;28;20067;-53
2023/03/25 01:52:13;;;;;;;10.05;4.50;;;;;;;;;;10348410;28;20042;-53
2023/03/25 01:57:18;;;;;;;8.25;4.57;;;;;;;;;;10339802;28;20168;-52
2023/03/25 02:02:19;;;;;;;7.05;4.75;;;;;;;;;;10341115;28;20029;-51
2023/03/25 02:07:20;;;;;;;9.80;4.22;;;;;;;;;;10346433;28;20109;-52
2023/03/25 02:12:20;;;;;;;8.73;4.50;;;;;;;;;;10368842;28;20087;-51
2023/03/25 02:17:48;;;;;;;7.10;4.53;;;;;;;;;;10370000;28;20022;-52
2023/03/25 02:23:34;;;;;;;5.57;4.88;;;;;;;;;;10361949;28;20029;-53
2023/03/25 02:28:50;;;;;;;7.22;4.70;;;;;;;;;;10332649;28;20037;-52
2023/03/25 02:34:22;;;;;;;5.07;4.35;;;;;;;;;;10329532;28;20054;-47
2023/03/25 02:40:04;;;;;;;14.30;4.75;;;;;;;;;;10340183;28;20034;-53
2023/03/25 02:45:30;;;;;;;6.10;4.75;;;;;;;;;;10260618;28;20034;-52
2023/03/25 02:50:39;;;;;;;7.22;4.50;;;;;;;;;;10336996;28;20030;-52
2023/03/25 02:55:42;;;;;;;6.55;4.95;;;;;;;;;;10347552;28;20033;-50
2023/03/25 03:00:43;;;;;;;5.30;4.57;;;;;;;;;;10348934;28;20481;-53
2023/03/25 03:05:49;;;;;;;7.85;5.03;;;;;;;;;;10349702;28;20042;-52
2023/03/25 03:11:15;;;;;;;12.70;4.70;;;;;;;;;;10359265;28;20401;-52
2023/03/25 03:16:39;;;;;;;6.78;4.32;;;;;;;;;;10355559;28;20026;-53
2023/03/25 03:22:01;;;;;;;6.68;4.63;;;;;;;;;;10355729;28;20496;-50
2023/03/25 03:27:13;;;;;;;5.70;4.57;;;;;;;;;;10365382;28;20033;-49
2023/03/25 03:32:26;;;;;;;5.10;4.45;;;;;;;;;;10366360;28;20026;-52
2023/03/25 03:37:35;;;;;;;6.53;4.70;;;;;;;;;;10366960;28;20101;-51
2023/03/25 03:42:47;;;;;;;4.75;4.15;;;;;;;;;;10351848;28;20099;-52
2023/03/25 03:47:53;;;;;;;6.82;4.38;;;;;;;;;;10366405;28;20393;-53
2023/03/25 03:53:15;;;;;;;5.68;4.10;;;;;;;;;;10360760;28;20133;-53
2023/03/25 03:58:27;;;;;;;4.90;4.22;;;;;;;;;;10348409;28;20049;-51
2023/03/25 04:03:37;;;;;;;5.68;4.43;;;;;;;;;;10352287;28;20611;-52
2023/03/25 04:08:51;;;;;;;4.82;3.97;;;;;;;;;;10359759;28;20026;-52
2023/03/25 04:13:55;;;;;;;7.22;4.32;;;;;;;;;;10353409;28;20030;-49
2023/03/25 04:18:57;;;;;;;4.72;3.70;;;;;;;;;;10366060;28;20470;-51
2023/03/25 04:24:00;;;;;;;4.40;4.00;;;;;;;;;;10368011;28;20050;-52
2023/03/25 04:29:01;;;;;;;6.05;3.95;;;;;;;;;;10367145;28;20034;-51
2023/03/25 04:34:03;;;;;;;7.15;4.38;;;;;;;;;;10366022;28;20481;-53
2023/03/25 04:39:03;;;;;;;4.82;3.80;;;;;;;;;;10373703;28;20038;-49
2023/03/25 04:44:08;;;;;;;4.43;3.50;;;;;;;;;;10374208;28;20087;-53
2023/03/25 04:49:19;;;;;;;5.82;4.20;;;;;;;;;;10366654;28;20034;-52
2023/03/25 04:54:22;;;;;;;5.10;4.13;;;;;;;;;;10356521;28;20058;-52
2023/03/25 04:59:23;;;;;;;5.75;4.20;;;;;;;;;;10362496;28;20096;-48
2023/03/25 05:04:23;;;;;;;6.85;3.83;;;;;;;;;;10360126;28;20030;-51
2023/03/25 05:09:24;;;;;;;4.43;4.03;;;;;;;;;;10373536;28;20033;-48
2023/03/25 05:14:24;;;;;;;4.45;4.05;;;;;;;;;;10373534;28;20069;-51
2023/03/25 05:19:27;;;;;;;7.75;3.60;;;;;;;;;;10364704;28;20033;-52
2023/03/25 05:24:28;;;;;;;3.92;3.42;;;;;;;;;;10360887;28;20474;-53
2023/03/25 05:29:32;;;;;;;4.40;3.63;;;;;;;;;;10365943;28;20027;-52
2023/03/25 05:34:33;;;;;;;4.07;3.65;;;;;;;;;;10365955;28;20038;-52
2023/03/25 05:39:33;;;;;;;4.03;3.63;;;;;;;;;;10358985;28;20026;-49
2023/03/25 05:44:34;;;;;;;4.18;3.78;;;;;;;;;;10370886;28;20025;-51
2023/03/25 05:49:35;;;;;;;3.88;3.45;;;;;;;;;;10371084;28;20022;-52
2023/03/25 05:54:40;;;;;;;5.10;4.00;;;;;;;;;;10358423;28;20064;-52
2023/03/25 05:59:41;;;;;;;4.22;3.47;;;;;;;;;;10369400;28;20030;-50
2023/03/25 06:04:43;;;;;;;3.63;3.33;;;;;;;;;;10370189;28;20029;-52
2023/03/25 06:09:45;;;;;;;5.63;4.13;;;;;;;;;;10370729;28;20064;-53
2023/03/25 06:14:47;;;;;;;4.35;3.70;;;;;;;;;;10371167;28;20030;-52
2023/03/25 06:19:49;;;;;;;5.18;3.70;;;;;;;;;;10351854;28;20030;-53
2023/03/25 06:24:51;;;;;;;4.05;3.63;;;;;;;;;;10369797;28;20402;-49
2023/03/25 06:29:51;;;;;;;3.75;3.30;;;;;;;;;;10343978;28;20038;-49
2023/03/25 06:34:52;;;;;;;3.92;3.50;;;;;;;;;;10361471;28;20038;-51
2023/03/25 06:39:55;;;;;;;5.15;3.75;;;;;;;;;;10365138;28;20037;-49
2023/03/25 06:44:56;;;;;;;4.13;3.53;;;;;;;;;;10367637;28;20041;-53
2023/03/25 06:49:56;;;;;;;4.85;3.45;;;;;;;;;;10366082;28;20022;-49
2023/03/25 06:54:57;;;;;;;4.90;3.45;;;;;;;;;;10362007;28;20049;-53
2023/03/25 06:59:57;;;;;;;5.82;3.30;;;;;;;;;;10366365;28;20025;-50
2023/03/25 07:04:58;;;;;;;3.67;3.35;;;;;;;;;;10367913;28;20029;-51
2023/03/25 07:09:59;;;;;;;4.50;3.80;;;;;;;;;;10375724;28;20042;-52
2023/03/25 07:15:00;;;;;;;3.97;3.30;;;;;;;;;;10372781;28;20033;-53
2023/03/25 07:20:00;;;;;;;3.88;3.42;;;;;;;;;;10370390;28;20034;-52
2023/03/25 07:25:01;;;;;;;3.88;3.35;;;;;;;;;;10365860;28;20030;-48
2023/03/25 07:30:03;;;;;;;5.97;3.35;;;;;;;;;;10358493;28;21099;-53
2023/03/25 07:35:05;;;;;;;3.63;3.20;;;;;;;;;;10347890;28;20509;-53
2023/03/25 07:40:06;;;;;;;4.63;3.40;;;;;;;;;;10362815;28;20037;-51
2023/03/25 07:45:07;;;;;;;4.00;3.15;;;;;;;;;;10362612;28;20044;-52
2023/03/25 07:50:08;;;;;;;4.40;2.95;;;;;;;;;;10356742;28;20030;-52
2023/03/25 07:55:09;;;;;;;3.65;3.25;;;;;;;;;;10361307;28;20445;-52
2023/03/25 08:00:10;;;;;;;3.38;3.08;;;;;;;;;;10352559;28;20023;-53
2023/03/25 08:05:11;;;;;;;5.10;3.60;;;;;;;;;;10362290;28;20064;-51
2023/03/25 08:10:14;;;;;;;4.25;3.10;;;;;;;;;;10360357;28;20027;-53
2023/03/25 08:15:16;;;;;;;4.55;3.30;;;;;;;;;;10361858;28;20034;-54
2023/03/25 08:20:17;;;;;;;2.83;2.63;;;;;;;;;;10366181;28;20300;-52
2023/03/25 08:25:18;;;;;;;3.45;3.15;;;;;;;;;;10352818;28;20221;-54
2023/03/25 08:30:18;;;;;;;4.22;3.00;;;;;;;;;;10368024;28;20254;-50
2023/03/25 08:35:22;;;;;;;3.58;3.28;;;;;;;;;;10356013;28;20054;-53
2023/03/25 08:40:23;;;;;;;4.70;3.33;;;;;;;;;;10361525;28;20034;-52
2023/03/25 08:45:24;;;;;;;4.80;3.25;;;;;;;;;;10367395;28;20038;-54
2023/03/25 08:50:25;;;;;;;5.72;3.90;;;;;;;;;;10368501;28;20101;-52
2023/03/25 08:55:25;;;;;;;6.35;3.67;;;;;;;;;;10362268;28;20049;-52
2023/03/25 09:00:26;;;;;;;4.47;3.65;;;;;;;;;;10367487;28;20026;-54
2023/03/25 09:05:27;;;;;;;5.38;3.40;;;;;;;;;;10370449;28;20041;-53
2023/03/25 09:10:27;;;;;;;4.72;3.28;;;;;;;;;;10348742;28;20022;-53
2023/03/25 09:15:28;;;;;;;4.20;3.65;;;;;;;;;;10372303;28;20038;-51
2023/03/25 09:20:28;;;;;;;6.28;3.53;;;;;;;;;;10375020;28;20104;-50
2023/03/25 09:25:29;;;;;;;8.07;3.80;;;;;;;;;;10367570;28;20030;-53
2023/03/25 09:30:30;;;;;;;5.97;3.65;;;;;;;;;;10365281;28;20446;-55
2023/03/25 09:35:30;;;;;;;5.82;3.80;;;;;;;;;;10356003;28;20037;-53
2023/03/25 09:40:31;;;;;;;6.20;3.38;;;;;;;;;;10360562;28;20034;-53
2023/03/25 09:45:43;;;;;;;4.32;3.80;;;;;;;;;;10363758;28;20481;-53
2023/03/25 09:50:45;;;;;;;17.20;5.97;;;;;;;;;;10362344;28;20061;-54
2023/03/25 09:55:47;;;;;;;14.10;7.03;;;;;;;;;;10349026;28;20416;-52
2023/03/25 10:01:11;;;;;;;14.82;9.15;;;;;;;;;;10338434;28;20053;-57
2023/03/25 10:06:18;;;;;;;14.90;9.00;;;;;;;;;;10364810;28;20498;-59
2023/03/25 10:12:09;;;;;;;16.27;12.13;;;;;;;;;;10355106;28;20101;-52
2023/03/25 10:17:24;;;;;;;26.65;12.55;;;;;;;;;;10346681;28;20120;-53
2023/03/25 10:23:05;;;;;;;15.32;9.68;;;;;;;;;;10337034;28;20041;-53
2023/03/25 10:28:10;;;;;;;11.95;9.77;;;;;;;;;;10370074;28;20033;-54
2023/03/25 10:33:44;;;;;;;13.48;9.15;;;;;;;;;;10357825;28;20651;-51
2023/03/25 10:38:49;;;;;;;20.65;9.38;;;;;;;;;;10356534;28;20113;-52
2023/03/25 10:43:50;;;;;;;16.30;8.30;;;;;;;;;;10353910;28;20417;-53
2023/03/25 10:48:54;;;;;;;14.60;7.65;;;;;;;;;;10355545;28;20044;-61
2023/03/25 10:53:56;;;;;;;12.80;8.70;;;;;;;;;;10349778;28;20042;-58
2023/03/25 10:58:59;;;;;;;12.63;7.70;;;;;;;;;;10313140;28;20065;-53
2023/03/25 11:04:03;;;;;;;12.68;7.53;;;;;;;;;;10322938;28;20026;-54
2023/03/25 11:09:07;;;;;;;12.93;7.50;;;;;;;;;;10365491;28;20447;-56
2023/03/25 11:14:12;;;;;;;12.40;7.15;;;;;;;;;;10375592;28;20033;-56
2023/03/25 11:19:27;;;;;;;13.52;7.00;;;;;;;;;;10379307;28;20083;-54
2023/03/25 11:24:43;;;;;;;14.30;6.97;;;;;;;;;;10355164;28;20034;-52
2023/03/25 11:30:00;;;;;;;13.93;6.82;;;;;;;;;;10354225;28;20056;-51
2023/03/25 11:35:27;;;;;;;14.25;7.22;;;;;;;;;;10335848;28;20046;-51
2023/03/25 11:40:29;;;;;;;16.23;9.63;;;;;;;;;;10361061;28;20039;-52
2023/03/25 11:45:38;;;;;;;15.73;9.15;;;;;;;;;;10317978;28;20052;-51
2023/03/25 11:50:53;;;;;;;15.95;9.85;;;;;;;;;;10360836;28;20069;-54
2023/03/25 11:55:58;;;;;;;22.67;11.13;;;;;;;;;;10376224;28;20606;-51
2023/03/25 12:01:06;;;;;;;16.45;11.65;;;;;;;;;;10322611;28;20061;-53
2023/03/25 12:06:10;;;;;;;19.70;12.25;;;;;;;;;;10366285;28;20076;-49
2023/03/25 12:11:29;;;;;;;21.58;11.98;;;;;;;;;;10373950;28;20026;-48
2023/03/25 12:17:02;;;;;;;18.80;10.82;;;;;;;;;;10367910;28;20375;-52
2023/03/25 12:22:20;;;;;;;18.70;12.23;;;;;;;;;;10358204;28;20021;-52
2023/03/25 12:27:56;;;;;;;17.17;10.63;;;;;;;;;;10360417;28;20034;-52
2023/03/25 12:33:31;;;;;;;21.42;11.93;;;;;;;;;;10356005;28;20457;-50
2023/03/25 12:39:00;;;;;;;21.17;12.60;;;;;;;;;;10340916;28;20400;-53
2023/03/25 12:44:19;;;;;;;20.40;12.20;;;;;;;;;;10359508;28;20037;-53
2023/03/25 12:49:42;;;;;;;18.17;12.70;;;;;;;;;;10351237;28;20045;-53
2023/03/25 12:55:32;;;;;;;21.92;13.27;;;;;;;;;;10353352;28;20128;-54
2023/03/25 13:01:09;;;;;;;21.13;13.82;;;;;;;;;;10338296;28;20109;-53
2023/03/25 13:06:46;;;;;;;17.17;12.85;;;;;;;;;;10389710;28;20022;-53
2023/03/25 13:11:56;;;;;;;14.27;11.48;;;;;;;;;;10352256;28;20156;-54
2023/03/25 13:17:02;;;;;;;15.88;11.07;;;;;;;;;;10350830;28;20038;-52
2023/03/25 13:22:12;;;;;;;18.88;12.23;;;;;;;;;;10329980;28;20323;-54
2023/03/25 13:27:14;;;;;;;17.58;10.55;;;;;;;;;;10344717;28;20198;-53
2023/03/25 13:32:24;;;;;;;15.48;10.30;;;;;;;;;;10356179;28;20057;-52
2023/03/25 13:37:37;;;;;;;23.63;11.23;;;;;;;;;;10345640;28;20041;-53
2023/03/25 13:43:02;;;;;;;32.25;10.10;;;;;;;;;;10356088;28;20034;-53
2023/03/25 13:48:27;;;;;;;20.40;8.88;;;;;;;;;;10353957;28;20030;-52
2023/03/25 13:53:58;;;;;;;22.75;8.68;;;;;;;;;;10334157;28;20483;-53
2023/03/25 13:59:24;;;;;;;16.33;8.38;;;;;;;;;;10347902;28;20125;-52
2023/03/25 14:05:22;;;;;;;15.85;7.80;;;;;;;;;;10356175;28;20096;-59
2023/03/25 14:10:39;;;;;;;14.57;7.10;;;;;;;;;;10348015;28;20026;-51
2023/03/25 14:15:56;;;;;;;9.43;6.95;;;;;;;;;;10348584;28;20434;-52
2023/03/25 14:21:31;;;;;;;10.82;6.88;;;;;;;;;;10351107;28;20528;-52
2023/03/25 14:26:36;;;;;;;12.25;7.03;;;;;;;;;;10335138;28;20466;-52
2023/03/25 14:31:37;;;;;;;16.38;7.30;;;;;;;;;;10361565;28;20276;-47
2023/03/25 14:36:40;;;;;;;12.98;6.05;;;;;;;;;;10360107;28;20603;-50
2023/03/25 14:42:10;;;;;;;15.40;6.70;;;;;;;;;;10350610;28;20080;-52
2023/03/25 14:47:19;;;;;;;16.27;6.22;;;;;;;;;;10354189;28;20037;-52
2023/03/25 14:53:09;;;;;;;13.85;6.70;;;;;;;;;;10353050;28;20054;-52
2023/03/25 14:58:24;;;;;;;19.80;6.43;;;;;;;;;;10336365;28;20034;-52
2023/03/25 15:03:44;;;;;;;12.15;6.40;;;;;;;;;;10352527;28;20041;-52
2023/03/25 15:08:55;;;;;;;12.50;6.53;;;;;;;;;;10344973;28;20478;-51
2023/03/25 15:14:02;;;;;;;13.25;7.00;;;;;;;;;;10349196;28;20061;-51
2023/03/25 15:19:20;;;;;;;12.38;6.85;;;;;;;;;;10355091;28;20477;-52
2023/03/25 15:24:48;;;;;;;12.20;5.93;;;;;;;;;;10328880;28;20125;-52
2023/03/25 15:30:13;;;;;;;11.15;6.10;;;;;;;;;;10362913;28;20049;-50
2023/03/25 15:35:31;;;;;;;15.70;6.72;;;;;;;;;;10351393;28;20168;-51
2023/03/25 15:41:31;;;;;;;10.50;6.47;;;;;;;;;;10331908;28;20026;-50
2023/03/25 15:47:05;;;;;;;8.93;6.15;;;;;;;;;;10366247;28;20042;-53
2023/03/25 15:52:42;;;;;;;15.88;6.63;;;;;;;;;;10339971;28;20133;-49
2023/03/25 15:58:02;;;;;;;8.90;5.65;;;;;;;;;;10351637;28;20045;-51
2023/03/25 16:03:02;;;;;;;8.95;5.95;;;;;;;;;;10358140;28;20064;-52
2023/03/25 16:08:18;;;;;;;9.25;5.65;;;;;;;;;;10359991;28;20018;-52
2023/03/25 16:13:22;;;;;;;15.65;6.95;;;;;;;;;;10360952;28;20525;-52
2023/03/25 16:18:24;;;;;;;9.65;5.93;;;;;;;;;;10357260;28;20042;-50
2023/03/25 16:23:26;;;;;;;9.82;5.88;;;;;;;;;;10334982;28;20117;-51
2023/03/25 16:28:47;;;;;;;7.75;5.57;;;;;;;;;;10354597;28;20356;-51
2023/03/25 16:33:48;;;;;;;14.30;5.75;;;;;;;;;;10352021;28;20042;-49
2023/03/25 16:38:48;;;;;;;11.10;5.38;;;;;;;;;;10372975;28;20454;-53
2023/03/25 16:43:49;;;;;;;9.60;5.88;;;;;;;;;;10364205;28;20034;-60
2023/03/25 16:48:52;;;;;;;7.00;5.10;;;;;;;;;;10351583;28;20504;-52
2023/03/25 16:53:58;;;;;;;10.95;5.25;;;;;;;;;;10345940;28;20136;-47
2023/03/25 16:59:06;;;;;;;6.30;5.05;;;;;;;;;;10376270;28;20030;-52
2023/03/25 17:04:16;;;;;;;8.57;5.45;;;;;;;;;;10365691;28;20038;-50
2023/03/25 17:09:24;;;;;;;7.13;5.38;;;;;;;;;;10375275;28;20053;-52
2023/03/25 17:14:35;;;;;;;6.35;5.18;;;;;;;;;;10351197;28;20037;-53
2023/03/25 17:19:47;;;;;;;9.18;6.32;;;;;;;;;;10342256;28;20038;-52
2023/03/25 17:24:56;;;;;;;10.65;5.70;;;;;;;;;;10364683;28;20266;-53
2023/03/25 17:30:13;;;;;;;9.15;5.35;;;;;;;;;;10363775;28;20549;-52
2023/03/25 17:35:29;;;;;;;6.25;4.82;;;;;;;;;;10364137;28;20034;-51
2023/03/25 17:40:30;;;;;;;7.78;5.20;;;;;;;;;;10357314;28;20026;-53
2023/03/25 17:45:31;;;;;;;8.35;5.03;;;;;;;;;;10366273;28;20025;-52
2023/03/25 17:50:32;;;;;;;8.20;4.75;;;;;;;;;;10351010;28;20490;-53
2023/03/25 17:55:32;;;;;;;7.32;4.90;;;;;;;;;;10361255;28;20049;-52
2023/03/25 18:00:34;;;;;;;9.48;4.93;;;;;;;;;;10360149;28;20389;-52
2023/03/25 18:05:35;;;;;;;8.43;4.53;;;;;;;;;;10341746;28;20133;-55
2023/03/25 18:10:37;;;;;;;6.85;4.55;;;;;;;;;;10353941;28;20045;-51
2023/03/25 18:15:38;;;;;;;5.60;4.30;;;;;;;;;;10358351;28;20096;-50
2023/03/25 18:20:38;;;;;;;9.02;4.20;;;;;;;;;;10358990;28;20366;-52
2023/03/25 18:25:40;;;;;;;6.53;5.10;;;;;;;;;;10348411;28;20463;-53
2023/03/25 18:30:59;;;;;;;9.95;5.50;;;;;;;;;;10367378;28;20037;-53
2023/03/25 18:35:59;;;;;;;7.57;5.65;;;;;;;;;;10366549;28;20034;-52
2023/03/25 18:41:00;;;;;;;7.53;5.25;;;;;;;;;;10369049;28;20041;-52
2023/03/25 18:46:01;;;;;;;10.52;5.43;;;;;;;;;;10362480;28;20030;-52
2023/03/25 18:51:02;;;;;;;10.75;5.85;;;;;;;;;;10352235;28;20104;-51
2023/03/25 18:56:04;;;;;;;10.48;5.70;;;;;;;;;;10361992;28;20034;-51
2023/03/25 19:01:06;;;;;;;8.82;5.18;;;;;;;;;;10362078;28;20038;-51
2023/03/25 19:06:12;;;;;;;8.13;5.47;;;;;;;;;;10358500;28;20066;-51
2023/03/25 19:11:15;;;;;;;13.32;5.47;;;;;;;;;;10362598;28;20029;-51
2023/03/25 19:16:15;;;;;;;27.55;6.05;;;;;;;;;;10344634;28;20121;-48
2023/03/25 19:21:18;;;;;;;22.48;7.18;;;;;;;;;;10341521;28;20026;-53
2023/03/25 19:26:19;;;;;;;21.73;6.90;;;;;;;;;;10360139;28;20629;-54
2023/03/25 19:31:19;;;;;;;16.83;6.72;;;;;;;;;;10357147;28;20061;-55
2023/03/25 19:36:22;;;;;;;37.42;6.68;;;;;;;;;;10364736;28;20037;-56
2023/03/25 19:41:22;;;;;;;25.33;6.97;;;;;;;;;;10362373;28;20030;-54
2023/03/25 19:46:23;;;;;;;24.25;8.20;;;;;;;;;;10364633;28;20029;-55
2023/03/25 19:51:24;;;;;;;13.77;7.63;;;;;;;;;;10362869;28;20180;-54
2023/03/25 19:56:25;;;;;;;19.27;7.22;;;;;;;;;;10346162;28;20494;-50
2023/03/25 20:01:25;;;;;;;18.40;6.90;;;;;;;;;;10366836;28;20092;-53
2023/03/25 20:06:27;;;;;;;12.43;6.68;;;;;;;;;;10367626;28;20394;-59
2023/03/25 20:11:27;;;;;;;16.27;6.25;;;;;;;;;;10377258;28;20088;-52
2023/03/25 20:16:29;;;;;;;23.63;6.38;;;;;;;;;;10359123;28;20033;-51
2023/03/25 20:21:30;;;;;;;29.52;7.22;;;;;;;;;;10374425;28;20072;-53
2023/03/25 20:26:30;;;;;;;23.92;6.50;;;;;;;;;;10364485;28;20355;-53
2023/03/25 20:31:32;;;;;;;12.80;5.90;;;;;;;;;;10373014;28;20041;-55
2023/03/25 20:36:33;;;;;;;13.38;6.13;;;;;;;;;;10368142;28;20056;-52
2023/03/25 20:41:34;;;;;;;12.30;5.97;;;;;;;;;;10361975;28;20040;-51
2023/03/25 20:46:34;;;;;;;12.10;5.00;;;;;;;;;;10369147;28;20026;-50
2023/03/25 20:51:35;;;;;;;10.82;5.18;;;;;;;;;;10372043;28;20038;-52
2023/03/25 20:56:37;;;;;;;8.30;5.00;;;;;;;;;;10353957;28;20036;-53
2023/03/25 21:01:37;;;;;;;10.10;5.50;;;;;;;;;;10344600;28;20029;-52
2023/03/25 21:06:38;;;;;;;8.18;4.43;;;;;;;;;;10358966;28;20029;-53
2023/03/25 21:11:39;;;;;;;9.20;4.80;;;;;;;;;;10367406;28;20029;-52
2023/03/25 21:16:41;;;;;;;7.68;4.70;;;;;;;;;;10374970;28;20036;-52
2023/03/25 21:21:41;;;;;;;9.48;4.13;;;;;;;;;;10379425;28;20145;-51
2023/03/25 21:26:42;;;;;;;7.05;4.28;;;;;;;;;;10371463;28;20494;-52
2023/03/25 21:31:42;;;;;;;11.35;3.92;;;;;;;;;;10374653;28;20710;-54
2023/03/25 21:36:43;;;;;;;6.55;4.10;;;;;;;;;;10366674;28;20417;-53
2023/03/25 21:41:44;;;;;;;9.18;4.05;;;;;;;;;;10362882;28;20473;-53
2023/03/25 21:46:44;;;;;;;8.48;4.55;;;;;;;;;;10352766;28;20034;-53
2023/03/25 21:51:49;;;;;;;8.10;4.45;;;;;;;;;;10363093;28;20093;-53
2023/03/25 21:56:53;;;;;;;9.13;3.60;;;;;;;;;;10354742;28;20397;-54
2023/03/25 22:01:54;;;;;;;11.48;4.38;;;;;;;;;;10351467;28;20036;-53
2023/03/25 22:06:55;;;;;;;17.88;4.75;;;;;;;;;;10368119;28;20061;-53
2023/03/25 22:11:56;;;;;;;14.20;5.30;;;;;;;;;;10366672;28;20080;-48
2023/03/25 22:16:56;;;;;;;21.48;5.10;;;;;;;;;;10369690;28;20029;-53
2023/03/25 22:21:57;;;;;;;12.93;5.05;;;;;;;;;;10365555;28;20030;-54
2023/03/25 22:26:57;;;;;;;8.95;3.72;;;;;;;;;;10356547;28;20029;-53
2023/03/25 22:32:05;;;;;;;8.77;4.15;;;;;;;;;;10367457;28;20478;-52
2023/03/25 22:37:06;;;;;;;7.97;3.72;;;;;;;;;;10358398;28;20584;-53
2023/03/25 22:42:07;;;;;;;8.50;4.30;;;;;;;;;;10365662;28;20233;-53
2023/03/25 22:47:07;;;;;;;8.18;4.22;;;;;;;;;;10355067;28;20037;-53
2023/03/25 22:52:08;;;;;;;11.23;4.45;;;;;;;;;;10346097;28;20046;-53
2023/03/25 22:57:08;;;;;;;9.13;3.95;;;;;;;;;;10341299;28;20030;-56
2023/03/25 23:02:12;;;;;;;7.45;3.88;;;;;;;;;;10348551;28;20034;-51
2023/03/25 23:07:13;;;;;;;7.63;3.45;;;;;;;;;;10367591;28;20029;-52
2023/03/25 23:12:20;;;;;;;6.07;3.78;;;;;;;;;;10364538;28;20386;-54
2023/03/25 23:17:25;;;;;;;8.60;3.80;;;;;;;;;;10346373;28;20474;-53
2023/03/25 23:22:26;;;;;;;8.10;3.60;;;;;;;;;;10373185;28;20033;-50
2023/03/25 23:27:29;;;;;;;7.30;3.80;;;;;;;;;;10366054;28;20033;-54
2023/03/25 23:32:33;;;;;;;12.07;4.05;;;;;;;;;;10354432;28;20453;-53
2023/03/25 23:37:33;;;;;;;10.27;3.70;;;;;;;;;;10365572;28;20385;-52
2023/03/25 23:42:34;;;;;;;10.30;3.70;;;;;;;;;;10358165;28;20081;-51
2023/03/25 23:47:34;;;;;;;5.82;3.58;;;;;;;;;;10361930;28;20026;-53
2023/03/25 23:52:35;;;;;;;5.47;3.58;;;;;;;;;;10363820;28;20050;-53
2023/03/25 23:57:36;;;;;;;12.65;3.60;;;;;;;;;;10372230;28;20532;-53
